Longport, NJ

5:38 AM EDT on September 02, 2014 (GMT -0400)
Cape May County | Change Station
CLOSE
Current Station
Airport
Location: Wildwood,
Elevation: 23 ft
Nearby Weather Stations

Elev 23 ft 39.01 °N, 74.91 °W | Updated 23 minutes ago

Clear
Clear
75 °F
Feels Like 75 °F
N
5
Wind Variable Wind from WSW

Today
High -- | Low -- °F
--% Chance of Precip.
Yesterday
High -- | Low -- °F
Precip. -- in
6:27 AM 7:27 PM
Waxing Crescent, 49% visible
Pressure 29.94 in
Visibility 10.0 miles
Clouds Clear
Dew Point 70 °F
Humidity 83%
Rainfall 0.00 in
Snow Depth Not available.
UV 0 out of 12
Pollen 4.80 out of 12
Air Quality Not available.
Flu Activity Not available.
METAR KWWD 020915Z AUTO 25004KT 10SM CLR 24/21 A2994 RMK AO1

More Conditions Fewer Conditions

Pressure 29.94 in
Visibility 10.0 miles
Clouds Clear
Dew Point 70 °F
Humidity 83%
Rainfall 0.00 in
Snow Depth Not available.
UV 0 out of 12
Pollen 4.80 out of 12
Air Quality Not available.
Flu Activity Not available.
METAR KWWD 020915Z AUTO 25004KT 10SM CLR 24/21 A2994 RMK AO1

More Conditions Fewer Conditions

10-Day Weather Forecast

Almanac

Astronomy

Sep. 02, 2014 Rise Set
Actual Time 6:27 AM EDT 7:27 PM EDT
Civil Twilight 6:00 AM EDT 7:54 PM EDT
Nautical Twilight 5:27 AM EDT 8:27 PM EDT
Astronomical Twilight 4:53 AM EDT 9:01 PM EDT
Moon 2:06 PM EDT No Moon Set
Length of Visible Light 13h 54m
Length of Day
12h 59m
Tomorrow will be 2m 28s shorter.
Waxing Crescent, 49% of the Moon is Illuminated
Today
Waxing Crescent
Sep 2
First Quarter
Sep 8
Full
Sep 15
Last Quarter
Sep 24
New

Today's Extremes

State Highs State Lows

Community

WunderPhotos

Upload Photos

1,749,587 photos uploaded!

WunderBlogs® & News

Nearby

Snow Depth

Station Depth Elevation
No new snow has been reported.

Earthquake Activity

City Distance Mag. Time & Date
No recent earthquake activity has been reported nearby.
Minimum magnitude displayed is 2.5.

Coastal Water Temperatures

Place Temperature
Atlantic City, NJ 75.9 °F

Nearby Weather Stations